Pula, Croatia

10:51 PM CET on January 31, 2015 (GMT +0100)
Astronomical observatory Pula | Change Station
CLOSE
Current Station
Personal Weather Station
Location: Pula - Istra, CROATIA
Elevation: 92 ft
Nearby Weather Stations

Elev 92 ft 44.87 °N, 13.85 °E | Updated 3 minutes ago

Rain
Rain
41.9 °F
Feels Like 42 °F
N
2.2
Wind Variable Wind from ESE
Gusts 8.3 mph

Today
High -- | Low -- °F
--% Chance of Precip.
Yesterday
High -- | Low -- °F
Precip. -- in
7:25 AM 5:10 PM
Waxing Gibbous, 91% visible
Pressure 29.18 in
Visibility 6.2 miles
Clouds Few 1400 ft
Scattered Clouds 2300 ft
Mostly Cloudy 4500 ft
Windchill 42 °F
Dew Point 40 °F
Humidity 94%
Rainfall 0.07 in
Snow Depth Not available.
UV 0 out of 12
Pollen Not available.
Air Quality Not available.
Flu Activity Not available.
METAR LDPL 312130Z 06010KT 9999 RA FEW014 SCT023 BKN045 05/03 Q0988

More Conditions Fewer Conditions

Pressure 29.18 in
Visibility 6.2 miles
Clouds Few 1400 ft
Scattered Clouds 2300 ft
Mostly Cloudy 4500 ft
Windchill 42 °F
Dew Point 40 °F
Humidity 94%
Rainfall 0.07 in
Snow Depth Not available.
UV 0 out of 12
Pollen Not available.
Air Quality Not available.
Flu Activity Not available.
METAR LDPL 312130Z 06010KT 9999 RA FEW014 SCT023 BKN045 05/03 Q0988

More Conditions Fewer Conditions

10-Day Weather Forecast

Almanac

Astronomy

Jan. 31, 2015 Rise Set
Actual Time
Civil Twilight
Nautical Twilight
Astronomical Twilight
Moon
Length of Visible Light
Length of Day
Tomorrow will be .
, % of the Moon is Illuminated

Today's Extremes

Country Highs Country Lows

Community

WunderPhotos

Upload Photos

1,792,213 photos uploaded!

WunderBlogs® & News

Nearby

Air Quality

  Air Quality AQ Index Pollutant
Not available.

Snow Depth

Station Depth Elevation

Earthquake Activity

City Distance Mag. Time & Date
Minimum magnitude displayed is 2.5.

Coastal Water Temperatures

Place Temperature

Nearby Weather Stations